PGT15HF LTAC-LTFJ
Flight info
| Callsign | PGT15HF |
|---|---|
| Flight time | N/A |
| Altitude | 24000 |
| Route | DEREL T79 NAMAN |
| Aircraft | B738/M-SDE2E3FGHIRWXY/LB1 |
Departure
| Time | 2026-05-07 17:19 |
|---|---|
| Airport | Esenboğa International Airport (LTAC) |
Arrival
| Time | N/A |
|---|---|
| Airport | Istanbul Sabiha Gökçen International Airport (LTFJ) |
| Time | Latitude | Longitude | Altitude | Speed | Heading |
|---|---|---|---|---|---|
| 2026-05-07 16:55 | 40.11427 | 32.98870 | 3112 ft | 0 kts | 126° |
| 2026-05-07 17:03 | 40.11439 | 32.98847 | 3112 ft | 4 kts | 114° |
| 2026-05-07 17:03 | 40.11445 | 32.98815 | 3112 ft | 4 kts | 83° |
| 2026-05-07 17:04 | 40.11436 | 32.98786 | 3112 ft | 3 kts | 39° |
| 2026-05-07 17:04 | 40.11433 | 32.98782 | 3112 ft | 0 kts | 36° |
| 2026-05-07 17:07 | 40.11437 | 32.98786 | 3112 ft | 2 kts | 37° |
| 2026-05-07 17:07 | 40.11462 | 32.98811 | 3112 ft | 7 kts | 37° |
| 2026-05-07 17:07 | 40.11518 | 32.98867 | 3112 ft | 13 kts | 41° |
| 2026-05-07 17:07 | 40.11600 | 32.98943 | 3112 ft | 16 kts | 3° |
| 2026-05-07 17:08 | 40.11677 | 32.98889 | 3112 ft | 10 kts | 12° |
| 2026-05-07 17:08 | 40.11738 | 32.98940 | 3112 ft | 12 kts | 36° |
| 2026-05-07 17:08 | 40.11826 | 32.99023 | 3112 ft | 18 kts | 36° |
| 2026-05-07 17:08 | 40.11933 | 32.99125 | 3113 ft | 19 kts | 36° |
| 2026-05-07 17:09 | 40.12038 | 32.99225 | 3115 ft | 18 kts | 36° |
| 2026-05-07 17:09 | 40.12138 | 32.99320 | 3116 ft | 18 kts | 36° |
| 2026-05-07 17:09 | 40.12236 | 32.99413 | 3117 ft | 17 kts | 36° |
| 2026-05-07 17:09 | 40.12331 | 32.99504 | 3118 ft | 16 kts | 36° |
| 2026-05-07 17:10 | 40.12420 | 32.99590 | 3119 ft | 16 kts | 36° |
| 2026-05-07 17:10 | 40.12507 | 32.99673 | 3121 ft | 15 kts | 37° |
| 2026-05-07 17:10 | 40.12591 | 32.99754 | 3122 ft | 15 kts | 36° |
| 2026-05-07 17:10 | 40.12671 | 32.99831 | 3122 ft | 14 kts | 36° |
| 2026-05-07 17:11 | 40.12747 | 32.99904 | 3122 ft | 13 kts | 36° |
| 2026-05-07 17:11 | 40.12821 | 32.99974 | 3123 ft | 13 kts | 36° |
| 2026-05-07 17:11 | 40.12892 | 33.00042 | 3122 ft | 13 kts | 36° |
| 2026-05-07 17:11 | 40.12962 | 33.00108 | 3124 ft | 12 kts | 37° |
| 2026-05-07 17:12 | 40.13028 | 33.00173 | 3124 ft | 12 kts | 36° |
| 2026-05-07 17:12 | 40.13094 | 33.00236 | 3124 ft | 12 kts | 36° |
| 2026-05-07 17:12 | 40.13159 | 33.00297 | 3126 ft | 11 kts | 36° |
| 2026-05-07 17:12 | 40.13225 | 33.00360 | 3126 ft | 13 kts | 36° |
| 2026-05-07 17:13 | 40.13319 | 33.00450 | 3128 ft | 20 kts | 36° |
| 2026-05-07 17:13 | 40.13442 | 33.00567 | 3130 ft | 22 kts | 36° |
| 2026-05-07 17:13 | 40.13563 | 33.00683 | 3131 ft | 21 kts | 36° |
| 2026-05-07 17:13 | 40.13679 | 33.00794 | 3132 ft | 21 kts | 36° |
| 2026-05-07 17:14 | 40.13795 | 33.00905 | 3133 ft | 20 kts | 36° |
| 2026-05-07 17:14 | 40.13900 | 33.01006 | 3134 ft | 18 kts | 36° |
| 2026-05-07 17:14 | 40.13994 | 33.01078 | 3135 ft | 14 kts | 8° |
| 2026-05-07 17:14 | 40.14066 | 33.01057 | 3135 ft | 5 kts | 319° |
| 2026-05-07 17:15 | 40.14091 | 33.01022 | 3135 ft | 6 kts | 303° |
| 2026-05-07 17:15 | 40.14105 | 33.00962 | 3135 ft | 8 kts | 281° |
| 2026-05-07 17:15 | 40.14130 | 33.00900 | 3135 ft | 8 kts | 305° |
| 2026-05-07 17:15 | 40.14160 | 33.00846 | 3135 ft | 7 kts | 307° |
| 2026-05-07 17:16 | 40.14180 | 33.00810 | 3135 ft | 0 kts | 306° |
| 2026-05-07 17:16 | 40.14182 | 33.00808 | 3135 ft | 2 kts | 306° |
| 2026-05-07 17:17 | 40.14207 | 33.00762 | 3135 ft | 11 kts | 306° |
| 2026-05-07 17:17 | 40.14195 | 33.00675 | 3135 ft | 5 kts | 216° |
| 2026-05-07 17:17 | 40.14193 | 33.00673 | 3135 ft | 0 kts | 215° |
| 2026-05-07 17:18 | 40.14139 | 33.00621 | 3134 ft | 33 kts | 217° |
| 2026-05-07 17:18 | 40.13746 | 33.00246 | 3130 ft | 105 kts | 216° |
| 2026-05-07 17:18 | 40.12989 | 32.99517 | 3125 ft | 163 kts | 218° |
| 2026-05-07 17:19 | 40.12039 | 32.98587 | 3712 ft | 167 kts | 216° |
| 2026-05-07 17:19 | 40.11136 | 32.97749 | 4687 ft | 160 kts | 217° |
| 2026-05-07 17:19 | 40.10187 | 32.96876 | 5234 ft | 176 kts | 218° |
| 2026-05-07 17:19 | 40.09109 | 32.95862 | 5543 ft | 203 kts | 218° |
| 2026-05-07 17:20 | 40.07910 | 32.94740 | 5855 ft | 221 kts | 218° |
| 2026-05-07 17:20 | 40.06612 | 32.93522 | 6137 ft | 243 kts | 218° |
| 2026-05-07 17:20 | 40.05193 | 32.92186 | 6748 ft | 253 kts | 218° |
| 2026-05-07 17:20 | 40.03765 | 32.90827 | 7582 ft | 254 kts | 222° |
| 2026-05-07 17:21 | 40.02724 | 32.88994 | 8322 ft | 253 kts | 251° |
| 2026-05-07 17:21 | 40.02406 | 32.86780 | 9086 ft | 253 kts | 270° |
| 2026-05-07 17:21 | 40.02693 | 32.84494 | 9596 ft | 263 kts | 298° |
| 2026-05-07 17:21 | 40.03745 | 32.82506 | 10179 ft | 272 kts | 308° |
| 2026-05-07 17:22 | 40.04922 | 32.80506 | 10675 ft | 283 kts | 308° |
| 2026-05-07 17:22 | 40.06146 | 32.78410 | 11186 ft | 295 kts | 308° |
| 2026-05-07 17:22 | 40.07406 | 32.76227 | 11691 ft | 307 kts | 307° |
| 2026-05-07 17:22 | 40.08714 | 32.73948 | 12211 ft | 318 kts | 307° |
| 2026-05-07 17:23 | 40.10053 | 32.71606 | 12573 ft | 335 kts | 307° |
| 2026-05-07 17:23 | 40.11489 | 32.69091 | 12835 ft | 353 kts | 307° |
| 2026-05-07 17:23 | 40.12989 | 32.66459 | 13115 ft | 369 kts | 307° |
| 2026-05-07 17:23 | 40.14554 | 32.63712 | 13388 ft | 382 kts | 308° |
| 2026-05-07 17:24 | 40.16166 | 32.60877 | 13842 ft | 390 kts | 308° |
| 2026-05-07 17:24 | 40.17771 | 32.58053 | 14513 ft | 391 kts | 308° |
| 2026-05-07 17:24 | 40.19401 | 32.55182 | 15196 ft | 393 kts | 308° |
| 2026-05-07 17:24 | 40.21035 | 32.52291 | 15821 ft | 397 kts | 307° |
| 2026-05-07 17:25 | 40.22640 | 32.49331 | 16444 ft | 400 kts | 306° |
| 2026-05-07 17:25 | 40.24215 | 32.46354 | 17055 ft | 404 kts | 306° |
| 2026-05-07 17:25 | 40.25815 | 32.43302 | 17657 ft | 407 kts | 306° |
| 2026-05-07 17:25 | 40.27415 | 32.40248 | 18333 ft | 408 kts | 306° |
| 2026-05-07 17:26 | 40.29036 | 32.37156 | 18908 ft | 410 kts | 306° |
| 2026-05-07 17:26 | 40.30656 | 32.34073 | 19446 ft | 412 kts | 306° |